sensor_id;sensor_type;location;lat;lon;timestamp;temperature;humidity
24408;DHT22;12542;50.924;4.516;2022-08-25T00:01:45;22.30;99.90
24408;DHT22;12542;50.924;4.516;2022-08-25T00:04:13;22.30;99.90
24408;DHT22;12542;50.924;4.516;2022-08-25T00:06:40;22.20;99.90
24408;DHT22;12542;50.924;4.516;2022-08-25T00:09:09;22.20;99.90
24408;DHT22;12542;50.924;4.516;2022-08-25T00:11:36;22.10;99.90
24408;DHT22;12542;50.924;4.516;2022-08-25T00:14:08;22.00;99.90
24408;DHT22;12542;50.924;4.516;2022-08-25T00:16:34;22.00;99.90
24408;DHT22;12542;50.924;4.516;2022-08-25T00:19:04;22.00;99.90
24408;DHT22;12542;50.924;4.516;2022-08-25T00:21:31;22.00;99.90
24408;DHT22;12542;50.924;4.516;2022-08-25T00:23:58;22.00;99.90
24408;DHT22;12542;50.924;4.516;2022-08-25T00:26:24;21.90;99.90
24408;DHT22;12542;50.924;4.516;2022-08-25T00:28:51;21.90;99.90
24408;DHT22;12542;50.924;4.516;2022-08-25T00:31:20;21.90;99.90
24408;DHT22;12542;50.924;4.516;2022-08-25T00:33:48;21.80;99.90
24408;DHT22;12542;50.924;4.516;2022-08-25T00:36:16;21.80;99.90
24408;DHT22;12542;50.924;4.516;2022-08-25T00:38:44;21.70;99.90
24408;DHT22;12542;50.924;4.516;2022-08-25T00:41:14;21.70;99.90
24408;DHT22;12542;50.924;4.516;2022-08-25T00:46:06;21.70;99.90
24408;DHT22;12542;50.924;4.516;2022-08-25T00:48:33;21.60;99.90
24408;DHT22;12542;50.924;4.516;2022-08-25T00:51:01;21.60;99.90
24408;DHT22;12542;50.924;4.516;2022-08-25T00:53:28;21.60;99.90
24408;DHT22;12542;50.924;4.516;2022-08-25T00:55:55;21.60;99.90
24408;DHT22;12542;50.924;4.516;2022-08-25T00:58:25;21.50;99.90
24408;DHT22;12542;50.924;4.516;2022-08-25T01:00:54;21.50;99.90
24408;DHT22;12542;50.924;4.516;2022-08-25T01:03:22;21.40;99.90
24408;DHT22;12542;50.924;4.516;2022-08-25T01:05:51;21.40;99.90
24408;DHT22;12542;50.924;4.516;2022-08-25T01:08:23;21.30;99.90
24408;DHT22;12542;50.924;4.516;2022-08-25T01:10:51;21.10;99.90
24408;DHT22;12542;50.924;4.516;2022-08-25T01:13:30;21.10;99.90
24408;DHT22;12542;50.924;4.516;2022-08-25T01:15:58;21.10;99.90
24408;DHT22;12542;50.924;4.516;2022-08-25T01:18:26;21.10;99.90
24408;DHT22;12542;50.924;4.516;2022-08-25T01:20:53;21.10;99.90
24408;DHT22;12542;50.924;4.516;2022-08-25T01:23:20;21.10;99.90
24408;DHT22;12542;50.924;4.516;2022-08-25T01:26:38;21.10;99.90
24408;DHT22;12542;50.924;4.516;2022-08-25T01:28:46;21.10;99.90
24408;DHT22;12542;50.924;4.516;2022-08-25T01:31:36;21.00;99.90
24408;DHT22;12542;50.924;4.516;2022-08-25T01:34:05;20.90;99.90
24408;DHT22;12542;50.924;4.516;2022-08-25T01:36:31;20.90;99.90
24408;DHT22;12542;50.924;4.516;2022-08-25T01:38:57;20.80;99.90
24408;DHT22;12542;50.924;4.516;2022-08-25T01:43:59;20.60;99.90
24408;DHT22;12542;50.924;4.516;2022-08-25T01:46:25;20.60;99.90
24408;DHT22;12542;50.924;4.516;2022-08-25T01:48:50;20.60;99.90
24408;DHT22;12542;50.924;4.516;2022-08-25T01:51:20;20.60;99.90
24408;DHT22;12542;50.924;4.516;2022-08-25T01:53:48;20.70;99.90
24408;DHT22;12542;50.924;4.516;2022-08-25T01:56:16;20.70;99.90
24408;DHT22;12542;50.924;4.516;2022-08-25T01:58:45;20.70;99.90
24408;DHT22;12542;50.924;4.516;2022-08-25T02:01:23;20.70;99.90
24408;DHT22;12542;50.924;4.516;2022-08-25T02:03:54;20.70;99.90
24408;DHT22;12542;50.924;4.516;2022-08-25T02:06:29;20.70;99.90
24408;DHT22;12542;50.924;4.516;2022-08-25T02:09:03;20.80;99.90
24408;DHT22;12542;50.924;4.516;2022-08-25T02:11:30;20.80;99.90
24408;DHT22;12542;50.924;4.516;2022-08-25T02:13:56;20.80;99.90
24408;DHT22;12542;50.924;4.516;2022-08-25T02:16:27;20.80;99.90
24408;DHT22;12542;50.924;4.516;2022-08-25T02:18:54;20.70;99.90
24408;DHT22;12542;50.924;4.516;2022-08-25T02:21:20;20.70;99.90
24408;DHT22;12542;50.924;4.516;2022-08-25T02:23:46;20.60;99.90
24408;DHT22;12542;50.924;4.516;2022-08-25T02:26:14;20.20;99.90
24408;DHT22;12542;50.924;4.516;2022-08-25T02:28:49;20.10;99.90
24408;DHT22;12542;50.924;4.516;2022-08-25T02:31:16;20.10;99.90
24408;DHT22;12542;50.924;4.516;2022-08-25T02:33:42;20.10;99.90
24408;DHT22;12542;50.924;4.516;2022-08-25T02:36:08;20.20;99.90
24408;DHT22;12542;50.924;4.516;2022-08-25T02:38:35;20.10;99.90
24408;DHT22;12542;50.924;4.516;2022-08-25T02:41:15;20.10;99.90
24408;DHT22;12542;50.924;4.516;2022-08-25T02:43:42;20.10;99.90
24408;DHT22;12542;50.924;4.516;2022-08-25T02:46:10;20.00;99.90
24408;DHT22;12542;50.924;4.516;2022-08-25T02:48:39;19.80;99.90
24408;DHT22;12542;50.924;4.516;2022-08-25T02:51:06;19.90;99.90
24408;DHT22;12542;50.924;4.516;2022-08-25T02:53:33;20.00;99.90
24408;DHT22;12542;50.924;4.516;2022-08-25T02:56:00;20.00;99.90
24408;DHT22;12542;50.924;4.516;2022-08-25T02:58:26;20.10;99.90
24408;DHT22;12542;50.924;4.516;2022-08-25T03:00:53;20.10;99.90
24408;DHT22;12542;50.924;4.516;2022-08-25T03:03:21;20.20;99.90
24408;DHT22;12542;50.924;4.516;2022-08-25T03:05:47;20.30;99.90
24408;DHT22;12542;50.924;4.516;2022-08-25T03:08:16;20.50;99.90
24408;DHT22;12542;50.924;4.516;2022-08-25T03:10:42;20.30;99.90
24408;DHT22;12542;50.924;4.516;2022-08-25T03:13:08;20.30;99.90
24408;DHT22;12542;50.924;4.516;2022-08-25T03:15:33;20.20;99.90
24408;DHT22;12542;50.924;4.516;2022-08-25T03:18:02;20.20;99.90
24408;DHT22;12542;50.924;4.516;2022-08-25T03:20:29;20.20;99.90
24408;DHT22;12542;50.924;4.516;2022-08-25T03:23:00;20.30;99.90
24408;DHT22;12542;50.924;4.516;2022-08-25T03:25:26;20.20;99.90
24408;DHT22;12542;50.924;4.516;2022-08-25T03:28:31;20.20;99.90
24408;DHT22;12542;50.924;4.516;2022-08-25T03:30:58;20.20;99.90
24408;DHT22;12542;50.924;4.516;2022-08-25T03:33:28;20.20;99.90
24408;DHT22;12542;50.924;4.516;2022-08-25T03:35:54;20.10;99.90
24408;DHT22;12542;50.924;4.516;2022-08-25T03:38:22;20.10;99.90
24408;DHT22;12542;50.924;4.516;2022-08-25T03:40:48;20.10;99.90
24408;DHT22;12542;50.924;4.516;2022-08-25T03:43:15;20.00;99.90
24408;DHT22;12542;50.924;4.516;2022-08-25T03:45:44;20.00;99.90
24408;DHT22;12542;50.924;4.516;2022-08-25T03:48:12;20.00;99.90
24408;DHT22;12542;50.924;4.516;2022-08-25T03:50:47;20.00;99.90
24408;DHT22;12542;50.924;4.516;2022-08-25T03:53:14;20.20;99.90
24408;DHT22;12542;50.924;4.516;2022-08-25T03:55:39;20.20;99.90
24408;DHT22;12542;50.924;4.516;2022-08-25T03:58:08;20.20;99.90
24408;DHT22;12542;50.924;4.516;2022-08-25T04:00:36;20.20;99.90
24408;DHT22;12542;50.924;4.516;2022-08-25T04:03:05;20.20;99.90
24408;DHT22;12542;50.924;4.516;2022-08-25T04:05:31;20.10;99.90
24408;DHT22;12542;50.924;4.516;2022-08-25T04:08:00;20.00;99.90
24408;DHT22;12542;50.924;4.516;2022-08-25T04:10:26;20.10;99.90
24408;DHT22;12542;50.924;4.516;2022-08-25T04:12:52;20.20;99.90
24408;DHT22;12542;50.924;4.516;2022-08-25T04:15:18;20.20;99.90
24408;DHT22;12542;50.924;4.516;2022-08-25T04:17:44;20.10;99.90
24408;DHT22;12542;50.924;4.516;2022-08-25T04:20:10;20.20;99.90
24408;DHT22;12542;50.924;4.516;2022-08-25T04:22:39;20.00;99.90
24408;DHT22;12542;50.924;4.516;2022-08-25T04:25:06;20.00;99.90
24408;DHT22;12542;50.924;4.516;2022-08-25T04:27:32;20.00;99.90
24408;DHT22;12542;50.924;4.516;2022-08-25T04:29:59;20.00;99.90
24408;DHT22;12542;50.924;4.516;2022-08-25T04:32:24;20.00;99.90
24408;DHT22;12542;50.924;4.516;2022-08-25T04:34:50;20.00;99.90
24408;DHT22;12542;50.924;4.516;2022-08-25T04:37:17;20.00;99.90
24408;DHT22;12542;50.924;4.516;2022-08-25T04:39:42;20.00;99.90
24408;DHT22;12542;50.924;4.516;2022-08-25T04:42:08;19.90;99.90
24408;DHT22;12542;50.924;4.516;2022-08-25T04:44:34;19.90;99.90
24408;DHT22;12542;50.924;4.516;2022-08-25T04:47:00;19.90;99.90
24408;DHT22;12542;50.924;4.516;2022-08-25T04:49:26;19.90;99.90
24408;DHT22;12542;50.924;4.516;2022-08-25T04:51:53;20.00;99.90
24408;DHT22;12542;50.924;4.516;2022-08-25T04:54:18;19.70;99.90
24408;DHT22;12542;50.924;4.516;2022-08-25T04:56:46;19.70;99.90
24408;DHT22;12542;50.924;4.516;2022-08-25T04:59:14;19.80;99.90
24408;DHT22;12542;50.924;4.516;2022-08-25T05:01:41;19.80;99.90
24408;DHT22;12542;50.924;4.516;2022-08-25T05:04:09;19.80;99.90
24408;DHT22;12542;50.924;4.516;2022-08-25T05:06:38;20.00;99.90
24408;DHT22;12542;50.924;4.516;2022-08-25T05:09:04;20.00;99.90
24408;DHT22;12542;50.924;4.516;2022-08-25T05:11:31;20.10;99.90
24408;DHT22;12542;50.924;4.516;2022-08-25T05:13:58;20.10;99.90
24408;DHT22;12542;50.924;4.516;2022-08-25T05:16:25;20.20;99.90
24408;DHT22;12542;50.924;4.516;2022-08-25T05:18:51;20.30;99.90
24408;DHT22;12542;50.924;4.516;2022-08-25T05:21:21;20.50;99.90
24408;DHT22;12542;50.924;4.516;2022-08-25T05:23:52;20.50;99.90
24408;DHT22;12542;50.924;4.516;2022-08-25T05:26:21;20.90;99.90
24408;DHT22;12542;50.924;4.516;2022-08-25T05:28:52;21.90;99.90
24408;DHT22;12542;50.924;4.516;2022-08-25T05:31:19;23.20;99.90
24408;DHT22;12542;50.924;4.516;2022-08-25T05:33:45;24.40;99.90
24408;DHT22;12542;50.924;4.516;2022-08-25T05:36:12;25.50;99.90
24408;DHT22;12542;50.924;4.516;2022-08-25T05:38:38;26.50;99.90
24408;DHT22;12542;50.924;4.516;2022-08-25T05:41:08;26.60;99.90
24408;DHT22;12542;50.924;4.516;2022-08-25T05:43:36;26.80;99.90
24408;DHT22;12542;50.924;4.516;2022-08-25T05:46:02;27.40;99.90
24408;DHT22;12542;50.924;4.516;2022-08-25T05:48:31;28.10;98.60
24408;DHT22;12542;50.924;4.516;2022-08-25T05:50:58;28.60;97.20
24408;DHT22;12542;50.924;4.516;2022-08-25T05:53:26;28.80;97.10
24408;DHT22;12542;50.924;4.516;2022-08-25T05:55:54;29.70;95.00
24408;DHT22;12542;50.924;4.516;2022-08-25T05:58:21;30.20;93.50
24408;DHT22;12542;50.924;4.516;2022-08-25T06:00:50;30.60;92.60
24408;DHT22;12542;50.924;4.516;2022-08-25T06:03:16;30.80;91.30
24408;DHT22;12542;50.924;4.516;2022-08-25T06:05:43;31.10;90.40
24408;DHT22;12542;50.924;4.516;2022-08-25T06:08:08;31.50;88.30
24408;DHT22;12542;50.924;4.516;2022-08-25T06:10:34;32.30;87.30
24408;DHT22;12542;50.924;4.516;2022-08-25T06:13:03;32.70;85.60
24408;DHT22;12542;50.924;4.516;2022-08-25T06:15:29;33.70;82.80
24408;DHT22;12542;50.924;4.516;2022-08-25T06:17:54;33.80;81.20
24408;DHT22;12542;50.924;4.516;2022-08-25T06:20:25;32.80;82.20
24408;DHT22;12542;50.924;4.516;2022-08-25T06:22:55;32.00;85.30
24408;DHT22;12542;50.924;4.516;2022-08-25T06:25:23;30.70;88.70
24408;DHT22;12542;50.924;4.516;2022-08-25T06:27:50;30.50;88.60
24408;DHT22;12542;50.924;4.516;2022-08-25T06:30:19;30.70;88.80
24408;DHT22;12542;50.924;4.516;2022-08-25T06:32:46;31.60;86.70
24408;DHT22;12542;50.924;4.516;2022-08-25T06:35:15;32.10;84.30
24408;DHT22;12542;50.924;4.516;2022-08-25T06:37:41;31.20;86.60
24408;DHT22;12542;50.924;4.516;2022-08-25T06:40:08;30.40;88.80
24408;DHT22;12542;50.924;4.516;2022-08-25T06:42:35;30.30;90.20
24408;DHT22;12542;50.924;4.516;2022-08-25T06:45:02;30.00;90.30
24408;DHT22;12542;50.924;4.516;2022-08-25T06:47:28;29.20;92.20
24408;DHT22;12542;50.924;4.516;2022-08-25T06:49:54;28.90;92.60
24408;DHT22;12542;50.924;4.516;2022-08-25T06:52:20;28.60;93.30
24408;DHT22;12542;50.924;4.516;2022-08-25T06:54:46;28.20;93.80
24408;DHT22;12542;50.924;4.516;2022-08-25T06:57:12;27.70;95.00
24408;DHT22;12542;50.924;4.516;2022-08-25T06:59:40;27.60;95.60
24408;DHT22;12542;50.924;4.516;2022-08-25T07:02:06;28.00;95.40
24408;DHT22;12542;50.924;4.516;2022-08-25T07:04:34;28.70;94.50
24408;DHT22;12542;50.924;4.516;2022-08-25T07:07:00;29.10;93.50
24408;DHT22;12542;50.924;4.516;2022-08-25T07:09:27;30.10;92.60
24408;DHT22;12542;50.924;4.516;2022-08-25T07:11:53;30.80;90.90
24408;DHT22;12542;50.924;4.516;2022-08-25T07:14:19;30.70;89.80
24408;DHT22;12542;50.924;4.516;2022-08-25T07:16:46;30.40;89.30
24408;DHT22;12542;50.924;4.516;2022-08-25T07:19:12;29.60;89.50
24408;DHT22;12542;50.924;4.516;2022-08-25T07:21:39;29.40;90.90
24408;DHT22;12542;50.924;4.516;2022-08-25T07:24:11;29.40;91.00
24408;DHT22;12542;50.924;4.516;2022-08-25T07:26:40;29.80;90.40
24408;DHT22;12542;50.924;4.516;2022-08-25T07:29:16;30.00;90.20
24408;DHT22;12542;50.924;4.516;2022-08-25T07:31:44;30.20;89.40
24408;DHT22;12542;50.924;4.516;2022-08-25T07:34:11;30.70;89.10
24408;DHT22;12542;50.924;4.516;2022-08-25T07:36:56;30.90;87.40
24408;DHT22;12542;50.924;4.516;2022-08-25T07:39:23;31.00;85.60
24408;DHT22;12542;50.924;4.516;2022-08-25T07:41:52;31.20;85.30
24408;DHT22;12542;50.924;4.516;2022-08-25T07:44:19;31.10;82.40
24408;DHT22;12542;50.924;4.516;2022-08-25T07:46:46;31.50;82.80
24408;DHT22;12542;50.924;4.516;2022-08-25T07:49:12;31.40;82.30
24408;DHT22;12542;50.924;4.516;2022-08-25T07:51:38;31.60;80.40
24408;DHT22;12542;50.924;4.516;2022-08-25T07:54:04;31.50;80.60
24408;DHT22;12542;50.924;4.516;2022-08-25T07:56:30;31.60;81.60
24408;DHT22;12542;50.924;4.516;2022-08-25T07:58:56;32.00;80.70
24408;DHT22;12542;50.924;4.516;2022-08-25T08:01:23;32.30;77.90
24408;DHT22;12542;50.924;4.516;2022-08-25T08:03:49;32.80;76.70
24408;DHT22;12542;50.924;4.516;2022-08-25T08:06:18;33.20;77.10
24408;DHT22;12542;50.924;4.516;2022-08-25T08:08:46;33.50;76.70
24408;DHT22;12542;50.924;4.516;2022-08-25T08:11:25;33.30;76.60
24408;DHT22;12542;50.924;4.516;2022-08-25T08:13:52;32.30;74.20
24408;DHT22;12542;50.924;4.516;2022-08-25T08:16:21;32.40;74.30
24408;DHT22;12542;50.924;4.516;2022-08-25T08:18:48;31.80;73.40
24408;DHT22;12542;50.924;4.516;2022-08-25T08:23:42;31.20;75.00
24408;DHT22;12542;50.924;4.516;2022-08-25T08:26:09;30.50;76.20
24408;DHT22;12542;50.924;4.516;2022-08-25T08:28:35;30.60;77.80
24408;DHT22;12542;50.924;4.516;2022-08-25T08:31:01;30.80;77.20
24408;DHT22;12542;50.924;4.516;2022-08-25T08:33:27;30.30;78.10
24408;DHT22;12542;50.924;4.516;2022-08-25T08:35:57;30.10;77.60
24408;DHT22;12542;50.924;4.516;2022-08-25T08:38:23;30.30;78.10
24408;DHT22;12542;50.924;4.516;2022-08-25T08:41:15;31.10;79.10
24408;DHT22;12542;50.924;4.516;2022-08-25T08:52:09;32.70;74.30
24408;DHT22;12542;50.924;4.516;2022-08-25T08:54:38;33.50;72.00
24408;DHT22;12542;50.924;4.516;2022-08-25T08:57:18;33.40;71.50
24408;DHT22;12542;50.924;4.516;2022-08-25T08:59:49;33.00;71.60
24408;DHT22;12542;50.924;4.516;2022-08-25T09:02:26;33.20;71.40
24408;DHT22;12542;50.924;4.516;2022-08-25T09:05:07;33.70;71.20
24408;DHT22;12542;50.924;4.516;2022-08-25T09:07:39;33.90;70.10
24408;DHT22;12542;50.924;4.516;2022-08-25T09:10:06;34.30;70.10
24408;DHT22;12542;50.924;4.516;2022-08-25T09:12:38;34.90;68.10
24408;DHT22;12542;50.924;4.516;2022-08-25T09:15:27;35.10;67.50
24408;DHT22;12542;50.924;4.516;2022-08-25T09:21:45;35.50;66.40
24408;DHT22;12542;50.924;4.516;2022-08-25T09:24:41;36.00;64.00
24408;DHT22;12542;50.924;4.516;2022-08-25T09:30:10;35.10;59.60
24408;DHT22;12542;50.924;4.516;2022-08-25T09:32:51;35.30;60.50
24408;DHT22;12542;50.924;4.516;2022-08-25T09:35:30;35.10;58.00
24408;DHT22;12542;50.924;4.516;2022-08-25T09:38:10;34.50;58.70
24408;DHT22;12542;50.924;4.516;2022-08-25T09:40:40;34.20;58.80
24408;DHT22;12542;50.924;4.516;2022-08-25T09:43:28;33.90;59.90
24408;DHT22;12542;50.924;4.516;2022-08-25T09:48:47;35.40;58.50
24408;DHT22;12542;50.924;4.516;2022-08-25T09:51:20;35.80;56.60
24408;DHT22;12542;50.924;4.516;2022-08-25T09:53:56;35.80;57.00
24408;DHT22;12542;50.924;4.516;2022-08-25T09:56:26;35.70;54.50
24408;DHT22;12542;50.924;4.516;2022-08-25T09:58:55;35.50;55.80
24408;DHT22;12542;50.924;4.516;2022-08-25T10:01:24;35.80;56.10
24408;DHT22;12542;50.924;4.516;2022-08-25T10:03:59;35.50;54.50
24408;DHT22;12542;50.924;4.516;2022-08-25T10:06:49;35.30;56.50
24408;DHT22;12542;50.924;4.516;2022-08-25T10:09:26;35.50;53.80
24408;DHT22;12542;50.924;4.516;2022-08-25T10:11:54;36.00;54.00
24408;DHT22;12542;50.924;4.516;2022-08-25T10:14:35;36.20;53.70
24408;DHT22;12542;50.924;4.516;2022-08-25T10:17:24;36.10;53.70
24408;DHT22;12542;50.924;4.516;2022-08-25T10:19:52;36.50;53.30
24408;DHT22;12542;50.924;4.516;2022-08-25T10:22:26;36.60;54.60
24408;DHT22;12542;50.924;4.516;2022-08-25T10:24:58;36.60;51.40
24408;DHT22;12542;50.924;4.516;2022-08-25T10:27:48;36.30;51.60
24408;DHT22;12542;50.924;4.516;2022-08-25T10:30:30;36.20;51.40
24408;DHT22;12542;50.924;4.516;2022-08-25T10:33:21;35.60;50.70
24408;DHT22;12542;50.924;4.516;2022-08-25T10:36:16;36.00;52.20
24408;DHT22;12542;50.924;4.516;2022-08-25T10:38:50;36.00;52.40
24408;DHT22;12542;50.924;4.516;2022-08-25T10:47:26;36.60;54.00
24408;DHT22;12542;50.924;4.516;2022-08-25T10:50:29;36.10;50.70
24408;DHT22;12542;50.924;4.516;2022-08-25T10:56:10;36.10;49.50
24408;DHT22;12542;50.924;4.516;2022-08-25T11:05:04;37.80;51.70
24408;DHT22;12542;50.924;4.516;2022-08-25T11:07:37;38.20;50.10
24408;DHT22;12542;50.924;4.516;2022-08-25T11:10:11;37.40;47.50
24408;DHT22;12542;50.924;4.516;2022-08-25T11:12:44;37.40;46.90
24408;DHT22;12542;50.924;4.516;2022-08-25T11:15:20;37.40;49.60
24408;DHT22;12542;50.924;4.516;2022-08-25T11:20:20;37.60;47.50
24408;DHT22;12542;50.924;4.516;2022-08-25T11:25:38;36.50;48.20
24408;DHT22;12542;50.924;4.516;2022-08-25T11:28:13;36.90;50.70
24408;DHT22;12542;50.924;4.516;2022-08-25T11:30:41;37.40;47.70
24408;DHT22;12542;50.924;4.516;2022-08-25T11:33:15;37.50;48.50
24408;DHT22;12542;50.924;4.516;2022-08-25T11:41:02;37.80;46.40
24408;DHT22;12542;50.924;4.516;2022-08-25T11:51:45;36.40;48.50
24408;DHT22;12542;50.924;4.516;2022-08-25T11:54:22;36.30;48.40
24408;DHT22;12542;50.924;4.516;2022-08-25T12:04:58;35.50;49.60
24408;DHT22;12542;50.924;4.516;2022-08-25T12:07:27;35.50;49.40
24408;DHT22;12542;50.924;4.516;2022-08-25T12:18:17;36.10;47.90
24408;DHT22;12542;50.924;4.516;2022-08-25T12:23:42;36.00;49.30
24408;DHT22;12542;50.924;4.516;2022-08-25T12:26:32;35.90;48.50
24408;DHT22;12542;50.924;4.516;2022-08-25T12:29:07;35.30;49.30
24408;DHT22;12542;50.924;4.516;2022-08-25T12:34:38;34.90;50.20
24408;DHT22;12542;50.924;4.516;2022-08-25T12:37:17;35.30;49.60
24408;DHT22;12542;50.924;4.516;2022-08-25T12:42:38;34.50;50.70
24408;DHT22;12542;50.924;4.516;2022-08-25T12:45:30;34.10;51.90
24408;DHT22;12542;50.924;4.516;2022-08-25T12:51:16;33.40;52.10
24408;DHT22;12542;50.924;4.516;2022-08-25T12:56:33;33.60;53.40
24408;DHT22;12542;50.924;4.516;2022-08-25T13:16:08;35.20;49.50
24408;DHT22;12542;50.924;4.516;2022-08-25T13:18:40;35.20;50.10
24408;DHT22;12542;50.924;4.516;2022-08-25T13:21:18;35.30;50.30
24408;DHT22;12542;50.924;4.516;2022-08-25T13:23:47;35.50;51.00
24408;DHT22;12542;50.924;4.516;2022-08-25T13:26:25;35.90;50.60
24408;DHT22;12542;50.924;4.516;2022-08-25T13:29:02;36.30;49.20
24408;DHT22;12542;50.924;4.516;2022-08-25T13:31:28;36.50;48.70
24408;DHT22;12542;50.924;4.516;2022-08-25T13:34:05;35.60;48.60
24408;DHT22;12542;50.924;4.516;2022-08-25T13:36:40;35.30;49.20
24408;DHT22;12542;50.924;4.516;2022-08-25T13:39:26;35.60;49.10
24408;DHT22;12542;50.924;4.516;2022-08-25T13:41:54;36.20;49.80
24408;DHT22;12542;50.924;4.516;2022-08-25T13:44:23;36.60;48.90
24408;DHT22;12542;50.924;4.516;2022-08-25T13:49:31;35.80;48.60
24408;DHT22;12542;50.924;4.516;2022-08-25T13:51:57;35.60;48.80
24408;DHT22;12542;50.924;4.516;2022-08-25T13:54:29;35.60;49.40
24408;DHT22;12542;50.924;4.516;2022-08-25T13:59:42;35.60;49.40
24408;DHT22;12542;50.924;4.516;2022-08-25T14:02:13;35.70;49.60
24408;DHT22;12542;50.924;4.516;2022-08-25T14:09:55;34.90;50.00
24408;DHT22;12542;50.924;4.516;2022-08-25T14:12:46;35.00;50.60
24408;DHT22;12542;50.924;4.516;2022-08-25T14:17:59;35.90;51.20
24408;DHT22;12542;50.924;4.516;2022-08-25T14:20:27;35.50;55.30
24408;DHT22;12542;50.924;4.516;2022-08-25T14:23:08;35.40;57.60
24408;DHT22;12542;50.924;4.516;2022-08-25T14:25:38;35.30;58.00
24408;DHT22;12542;50.924;4.516;2022-08-25T14:28:08;34.90;58.60
24408;DHT22;12542;50.924;4.516;2022-08-25T14:30:38;34.70;59.40
24408;DHT22;12542;50.924;4.516;2022-08-25T14:33:04;34.30;60.80
24408;DHT22;12542;50.924;4.516;2022-08-25T14:35:30;34.20;61.60
24408;DHT22;12542;50.924;4.516;2022-08-25T14:37:56;34.30;61.10
24408;DHT22;12542;50.924;4.516;2022-08-25T14:40:22;34.10;62.30
24408;DHT22;12542;50.924;4.516;2022-08-25T14:42:48;34.20;61.90
24408;DHT22;12542;50.924;4.516;2022-08-25T14:45:16;34.20;62.00
24408;DHT22;12542;50.924;4.516;2022-08-25T14:47:43;34.40;62.40
24408;DHT22;12542;50.924;4.516;2022-08-25T14:50:11;34.40;62.70
24408;DHT22;12542;50.924;4.516;2022-08-25T14:52:39;34.30;61.00
24408;DHT22;12542;50.924;4.516;2022-08-25T14:55:06;33.80;61.40
24408;DHT22;12542;50.924;4.516;2022-08-25T14:57:32;33.80;62.70
24408;DHT22;12542;50.924;4.516;2022-08-25T14:59:57;33.80;63.10
24408;DHT22;12542;50.924;4.516;2022-08-25T15:02:23;33.50;63.90
24408;DHT22;12542;50.924;4.516;2022-08-25T15:04:57;33.50;63.50
24408;DHT22;12542;50.924;4.516;2022-08-25T15:07:24;33.30;63.80
24408;DHT22;12542;50.924;4.516;2022-08-25T15:10:09;33.30;62.10
24408;DHT22;12542;50.924;4.516;2022-08-25T15:12:38;33.30;61.60
24408;DHT22;12542;50.924;4.516;2022-08-25T15:15:04;33.40;62.40
24408;DHT22;12542;50.924;4.516;2022-08-25T15:17:31;33.50;62.00
24408;DHT22;12542;50.924;4.516;2022-08-25T15:19:56;33.30;61.70
24408;DHT22;12542;50.924;4.516;2022-08-25T15:22:22;33.20;62.20
24408;DHT22;12542;50.924;4.516;2022-08-25T15:24:48;33.20;63.10
24408;DHT22;12542;50.924;4.516;2022-08-25T15:27:18;33.20;63.60
24408;DHT22;12542;50.924;4.516;2022-08-25T15:29:44;33.30;63.50
24408;DHT22;12542;50.924;4.516;2022-08-25T15:32:09;33.40;63.20
24408;DHT22;12542;50.924;4.516;2022-08-25T15:34:38;33.10;63.20
24408;DHT22;12542;50.924;4.516;2022-08-25T15:37:14;33.20;65.50
24408;DHT22;12542;50.924;4.516;2022-08-25T15:39:43;33.10;64.70
24408;DHT22;12542;50.924;4.516;2022-08-25T15:42:09;32.90;67.80
24408;DHT22;12542;50.924;4.516;2022-08-25T15:44:38;32.70;70.10
24408;DHT22;12542;50.924;4.516;2022-08-25T15:47:04;32.60;71.90
24408;DHT22;12542;50.924;4.516;2022-08-25T15:49:29;32.20;73.40
24408;DHT22;12542;50.924;4.516;2022-08-25T15:51:55;31.90;75.10
24408;DHT22;12542;50.924;4.516;2022-08-25T15:54:22;31.70;77.40
24408;DHT22;12542;50.924;4.516;2022-08-25T15:56:48;31.50;79.40
24408;DHT22;12542;50.924;4.516;2022-08-25T15:59:14;31.60;80.20
24408;DHT22;12542;50.924;4.516;2022-08-25T16:01:40;31.70;81.50
24408;DHT22;12542;50.924;4.516;2022-08-25T16:04:06;31.50;82.80
24408;DHT22;12542;50.924;4.516;2022-08-25T16:06:32;31.20;84.40
24408;DHT22;12542;50.924;4.516;2022-08-25T16:08:59;31.00;85.40
24408;DHT22;12542;50.924;4.516;2022-08-25T16:11:28;30.80;86.80
24408;DHT22;12542;50.924;4.516;2022-08-25T16:13:55;30.70;87.30
24408;DHT22;12542;50.924;4.516;2022-08-25T16:16:24;30.50;88.80
24408;DHT22;12542;50.924;4.516;2022-08-25T16:18:50;30.40;90.00
24408;DHT22;12542;50.924;4.516;2022-08-25T16:21:25;30.20;90.80
24408;DHT22;12542;50.924;4.516;2022-08-25T16:23:56;30.10;91.20
24408;DHT22;12542;50.924;4.516;2022-08-25T16:26:22;30.00;92.00
24408;DHT22;12542;50.924;4.516;2022-08-25T16:28:48;29.90;92.50
24408;DHT22;12542;50.924;4.516;2022-08-25T16:31:17;29.90;92.60
24408;DHT22;12542;50.924;4.516;2022-08-25T16:33:43;29.70;92.00
24408;DHT22;12542;50.924;4.516;2022-08-25T16:36:15;29.70;91.40
24408;DHT22;12542;50.924;4.516;2022-08-25T16:38:43;29.70;91.70
24408;DHT22;12542;50.924;4.516;2022-08-25T16:41:12;29.60;92.20
24408;DHT22;12542;50.924;4.516;2022-08-25T16:43:41;29.50;92.70
24408;DHT22;12542;50.924;4.516;2022-08-25T16:46:10;29.40;92.80
24408;DHT22;12542;50.924;4.516;2022-08-25T16:48:37;29.40;93.40
24408;DHT22;12542;50.924;4.516;2022-08-25T16:51:12;29.30;93.90
24408;DHT22;12542;50.924;4.516;2022-08-25T16:53:38;29.10;94.30
24408;DHT22;12542;50.924;4.516;2022-08-25T16:56:23;28.90;95.50
24408;DHT22;12542;50.924;4.516;2022-08-25T16:58:57;28.80;96.70
24408;DHT22;12542;50.924;4.516;2022-08-25T17:01:25;28.80;97.20
24408;DHT22;12542;50.924;4.516;2022-08-25T17:03:53;28.90;97.80
24408;DHT22;12542;50.924;4.516;2022-08-25T17:06:21;28.80;98.20
24408;DHT22;12542;50.924;4.516;2022-08-25T17:08:47;28.80;98.40
24408;DHT22;12542;50.924;4.516;2022-08-25T17:11:20;28.70;98.30
24408;DHT22;12542;50.924;4.516;2022-08-25T17:13:50;28.50;99.20
24408;DHT22;12542;50.924;4.516;2022-08-25T17:16:17;28.30;99.90
24408;DHT22;12542;50.924;4.516;2022-08-25T17:18:45;28.20;99.90
24408;DHT22;12542;50.924;4.516;2022-08-25T17:21:13;28.20;99.90
24408;DHT22;12542;50.924;4.516;2022-08-25T17:23:42;28.10;99.90
24408;DHT22;12542;50.924;4.516;2022-08-25T17:26:11;28.10;99.90
24408;DHT22;12542;50.924;4.516;2022-08-25T17:28:38;28.00;99.90
24408;DHT22;12542;50.924;4.516;2022-08-25T17:31:06;27.70;99.90
24408;DHT22;12542;50.924;4.516;2022-08-25T17:33:32;27.60;99.90
24408;DHT22;12542;50.924;4.516;2022-08-25T17:35:58;27.50;99.90
24408;DHT22;12542;50.924;4.516;2022-08-25T17:38:26;27.50;99.90
24408;DHT22;12542;50.924;4.516;2022-08-25T17:40:55;27.40;99.90
24408;DHT22;12542;50.924;4.516;2022-08-25T17:43:22;27.30;99.90
24408;DHT22;12542;50.924;4.516;2022-08-25T17:45:49;27.30;99.90
24408;DHT22;12542;50.924;4.516;2022-08-25T17:48:17;27.30;99.90